Black Meadow Landing, California
Current Conditions -  °F | °C
As of 12:55 AM on Saturday 22 Nov 2014 (Local Time) from KHII Reporting Station
Clear Clear  
Wind Chill: 55°   Ceiling: Unl
Heat Index: 55°   Visibility: 10mi
Dew Point: 19°   Wind: 3mph
Humidity: 25%   Direction: 110°ESE
Pressure: 30.02"   Gusts: NA
Location:  34.2861°N, 114.142°W
Report Text: KHII 220855Z AUTO 11003KT 10SM CLR 13/M07 A3002 RMK AO2
Loading
Personal Weather Stations






























Interactive Weather Map New forecast layout! Learn more

10-Day Weather Forecast

Advertisements
Track Severe Weather on mobile